createdAt,value
2023-05-15T00:02:03.410Z,83.30
2023-05-15T00:04:29.665Z,83.83
2023-05-15T00:06:56.037Z,83.64
2023-05-15T00:09:22.351Z,82.76
2023-05-15T00:11:48.702Z,82.67
2023-05-15T00:14:14.951Z,83.90
2023-05-15T00:16:41.309Z,82.70
2023-05-15T00:19:07.800Z,82.55
2023-05-15T00:21:34.192Z,83.36
2023-05-15T00:24:00.437Z,83.88
2023-05-15T00:26:26.692Z,83.27
2023-05-15T00:28:52.966Z,83.45
2023-05-15T00:31:20.297Z,84.44
2023-05-15T00:33:46.551Z,83.59
2023-05-15T00:36:12.941Z,84.14
2023-05-15T00:38:39.210Z,84.89
2023-05-15T00:41:09.557Z,84.89
2023-05-15T00:43:38.151Z,84.62
2023-05-15T00:46:05.903Z,83.88
2023-05-15T00:48:33.077Z,83.20
2023-05-15T00:50:59.745Z,82.91
2023-05-15T00:53:27.019Z,83.18
2023-05-15T00:55:57.001Z,84.56
2023-05-15T00:58:24.154Z,84.87
2023-05-15T01:00:50.542Z,86.38
2023-05-15T01:03:17.253Z,85.90
2023-05-15T01:05:44.156Z,86.71
2023-05-15T01:08:25.941Z,85.49
2023-05-15T01:10:52.588Z,84.06
2023-05-15T01:13:22.353Z,86.09
2023-05-15T01:15:49.234Z,85.78
2023-05-15T01:18:16.209Z,84.78
2023-05-15T01:20:45.803Z,85.62
2023-05-15T01:23:18.152Z,84.25
2023-05-15T01:25:53.957Z,84.59
2023-05-15T01:28:28.422Z,83.95
2023-05-15T01:30:55.322Z,83.80
2023-05-15T01:33:23.780Z,83.48
2023-05-15T01:35:55.186Z,83.47
2023-05-15T01:38:30.027Z,84.22
2023-05-15T01:40:59.352Z,84.06
2023-05-15T01:43:27.795Z,84.50
2023-05-15T01:45:55.406Z,85.32
2023-05-15T01:48:25.000Z,84.62
2023-05-15T01:50:54.082Z,84.71
2023-05-15T01:53:20.343Z,84.75
2023-05-15T01:55:48.082Z,85.45
2023-05-15T01:58:15.304Z,84.92
2023-05-15T02:00:42.170Z,84.75
2023-05-15T02:03:09.114Z,85.13
2023-05-15T02:05:35.500Z,86.82
2023-05-15T02:08:02.703Z,86.07
2023-05-15T02:10:29.930Z,86.47
2023-05-15T02:12:56.356Z,85.67
2023-05-15T02:15:22.617Z,85.30
2023-05-15T02:17:48.990Z,85.02
2023-05-15T02:20:15.379Z,86.01
2023-05-15T02:22:42.606Z,85.29
2023-05-15T02:25:08.979Z,86.59
2023-05-15T02:27:55.761Z,87.50
2023-05-15T02:30:21.981Z,87.30
2023-05-15T02:32:54.168Z,87.52
2023-05-15T02:35:26.822Z,86.33
2023-05-15T02:37:55.825Z,86.22
2023-05-15T02:40:23.777Z,85.94
2023-05-15T02:42:51.958Z,85.22
2023-05-15T02:45:19.196Z,85.48
2023-05-15T02:47:45.769Z,85.11
2023-05-15T02:50:12.228Z,84.82
2023-05-15T02:52:38.640Z,84.87
2023-05-15T02:55:05.383Z,84.43
2023-05-15T02:57:31.672Z,84.13
2023-05-15T02:59:57.992Z,84.15
2023-05-15T03:02:24.423Z,84.07
2023-05-15T03:04:51.116Z,84.00
2023-05-15T03:07:17.429Z,84.23
2023-05-15T03:09:43.710Z,84.09
2023-05-15T03:12:10.004Z,84.16
2023-05-15T03:14:36.354Z,84.03
2023-05-15T03:17:02.804Z,84.47
2023-05-15T03:19:29.191Z,84.34
2023-05-15T03:21:55.551Z,84.17
2023-05-15T03:24:21.926Z,83.99
2023-05-15T03:26:48.236Z,84.01
2023-05-15T03:29:14.505Z,83.97
2023-05-15T03:31:40.892Z,84.02
2023-05-15T03:34:07.317Z,84.12
2023-05-15T03:36:33.650Z,84.15
2023-05-15T03:38:59.953Z,84.11
2023-05-15T03:41:26.216Z,84.17
2023-05-15T03:43:52.488Z,84.19
2023-05-15T03:46:18.805Z,84.19
2023-05-15T03:48:45.192Z,84.31
2023-05-15T03:51:11.500Z,84.25
2023-05-15T03:53:38.062Z,84.21
2023-05-15T03:56:04.397Z,84.24
2023-05-15T03:58:30.617Z,84.19
2023-05-15T04:00:57.313Z,84.14
2023-05-15T04:03:23.699Z,84.69
2023-05-15T04:05:50.046Z,85.15
2023-05-15T04:08:16.355Z,84.30
2023-05-15T04:10:42.627Z,84.42
2023-05-15T04:13:08.921Z,84.30
2023-05-15T04:15:35.301Z,84.23
2023-05-15T04:18:01.663Z,84.43
2023-05-15T04:20:27.896Z,85.26
2023-05-15T04:22:54.286Z,86.83
2023-05-15T04:25:20.747Z,86.24
2023-05-15T04:27:47.102Z,84.88
2023-05-15T04:30:13.459Z,84.50
2023-05-15T04:32:40.208Z,84.36
2023-05-15T04:35:07.143Z,84.69
2023-05-15T04:37:33.400Z,84.42
2023-05-15T04:39:59.686Z,84.31
2023-05-15T04:42:26.086Z,84.27
2023-05-15T04:44:52.883Z,84.30
2023-05-15T04:47:19.176Z,84.24
2023-05-15T04:49:45.475Z,84.26
2023-05-15T04:52:11.788Z,85.02
2023-05-15T04:54:38.213Z,86.70
2023-05-15T04:57:04.625Z,87.43
2023-05-15T04:59:31.002Z,87.97
2023-05-15T05:01:57.332Z,87.94
2023-05-15T05:04:23.737Z,87.74
2023-05-15T05:06:50.191Z,87.91
2023-05-15T05:09:17.909Z,87.32
2023-05-15T05:11:44.181Z,86.57
2023-05-15T05:14:10.909Z,86.02
2023-05-15T05:16:37.473Z,85.24
2023-05-15T05:19:03.931Z,84.79
2023-05-15T05:21:30.519Z,84.69
2023-05-15T05:23:56.841Z,84.61
2023-05-15T05:26:23.230Z,84.35
2023-05-15T05:28:49.518Z,84.26
2023-05-15T05:31:15.841Z,83.70
2023-05-15T05:33:42.179Z,83.41
2023-05-15T05:36:08.695Z,83.18
2023-05-15T05:38:35.520Z,83.02
2023-05-15T05:41:02.010Z,83.08
2023-05-15T05:43:28.326Z,83.03
2023-05-15T05:45:54.593Z,82.93
2023-05-15T05:48:20.953Z,83.03
2023-05-15T05:50:47.255Z,82.90
2023-05-15T05:53:13.608Z,82.76
2023-05-15T05:55:40.188Z,82.84
2023-05-15T05:58:11.828Z,83.20
2023-05-15T06:00:44.651Z,82.77
2023-05-15T06:03:11.293Z,82.71
2023-05-15T06:05:37.593Z,82.70
2023-05-15T06:08:04.065Z,82.70
2023-05-15T06:10:30.319Z,83.22
2023-05-15T06:12:56.627Z,82.92
2023-05-15T06:15:23.118Z,82.80
2023-05-15T06:17:49.680Z,82.88
2023-05-15T06:20:16.044Z,83.22
2023-05-15T06:22:42.288Z,82.75
2023-05-15T06:25:08.707Z,82.56
2023-05-15T06:27:35.076Z,82.35
2023-05-15T06:30:01.351Z,82.15
2023-05-15T06:32:27.716Z,81.97
2023-05-15T06:34:54.099Z,81.92
2023-05-15T06:37:20.352Z,81.85
2023-05-15T06:39:46.635Z,81.85
2023-05-15T06:42:12.945Z,81.62
2023-05-15T06:44:40.758Z,81.80
2023-05-15T06:47:07.136Z,81.57
2023-05-15T06:49:33.489Z,81.50
2023-05-15T06:51:59.736Z,81.31
2023-05-15T06:54:25.991Z,80.98
2023-05-15T06:56:52.437Z,80.75
2023-05-15T06:59:18.766Z,80.68
2023-05-15T07:01:45.060Z,80.42
2023-05-15T07:04:14.275Z,80.60
2023-05-15T07:06:40.581Z,80.58
2023-05-15T07:09:06.825Z,80.30
2023-05-15T07:11:33.123Z,79.79
2023-05-15T07:13:59.411Z,79.63
2023-05-15T07:16:25.707Z,79.65
2023-05-15T07:18:52.264Z,79.51
2023-05-15T07:21:18.763Z,79.47
2023-05-15T07:23:45.090Z,79.52
2023-05-15T07:26:16.983Z,79.33
2023-05-15T07:28:46.685Z,79.65
2023-05-15T07:31:13.025Z,79.74
2023-05-15T07:33:39.315Z,79.28
2023-05-15T07:36:06.496Z,79.04
2023-05-15T07:38:32.850Z,78.76
2023-05-15T07:40:59.101Z,78.77
2023-05-15T07:43:25.361Z,78.65
2023-05-15T07:45:51.734Z,78.12
2023-05-15T07:48:18.936Z,78.20
2023-05-15T07:50:45.906Z,78.19
2023-05-15T07:53:15.411Z,78.22
2023-05-15T07:55:42.200Z,78.33
2023-05-15T07:58:08.678Z,78.39
2023-05-15T08:00:35.181Z,79.14
2023-05-15T08:03:01.689Z,78.87
2023-05-15T08:05:28.358Z,78.60
2023-05-15T08:07:55.596Z,79.05
2023-05-15T08:10:21.965Z,78.88
2023-05-15T08:12:48.743Z,77.95
2023-05-15T08:15:15.427Z,77.83
2023-05-15T08:17:41.989Z,77.91
2023-05-15T08:20:08.970Z,78.10
2023-05-15T08:22:35.398Z,77.89
2023-05-15T08:25:03.389Z,77.51
2023-05-15T08:27:32.747Z,77.57
2023-05-15T08:29:59.383Z,77.68
2023-05-15T08:36:52.527Z,80.30
2023-05-15T08:43:05.926Z,81.04
2023-05-15T08:45:34.933Z,79.56
2023-05-15T08:46:09.868Z,80.92
2023-05-15T08:48:04.934Z,78.55
2023-05-15T08:50:31.495Z,78.27
2023-05-15T08:52:57.942Z,78.08
2023-05-15T08:55:24.797Z,77.96
2023-05-15T08:57:51.351Z,78.00
2023-05-15T09:00:18.326Z,77.98
2023-05-15T09:02:44.777Z,78.40
2023-05-15T09:05:11.237Z,79.04
2023-05-15T09:07:38.084Z,79.12
2023-05-15T09:10:04.927Z,78.81
2023-05-15T09:12:33.513Z,78.10
2023-05-15T09:15:13.571Z,77.68
2023-05-15T09:17:40.031Z,77.78
2023-05-15T09:20:06.807Z,77.27
2023-05-15T09:22:34.030Z,76.89
2023-05-15T09:25:00.446Z,76.48
2023-05-15T09:27:26.840Z,76.61
2023-05-15T09:29:53.255Z,76.69
2023-05-15T09:32:19.767Z,76.77
2023-05-15T09:34:48.126Z,76.95
2023-05-15T09:37:32.589Z,77.19
2023-05-15T09:40:09.570Z,77.18
2023-05-15T09:42:36.285Z,76.37
2023-05-15T09:55:53.550Z,76.01
2023-05-15T09:58:20.060Z,75.74
2023-05-15T10:00:48.424Z,74.95
2023-05-15T10:03:19.053Z,74.53
2023-05-15T10:05:45.619Z,74.67
2023-05-15T10:08:11.997Z,74.72
2023-05-15T10:10:38.358Z,74.77
2023-05-15T10:13:06.358Z,74.83
2023-05-15T10:15:33.330Z,74.44
2023-05-15T10:17:59.675Z,74.46
2023-05-15T10:20:26.204Z,74.40
2023-05-15T10:22:54.260Z,74.55
2023-05-15T10:25:32.530Z,74.05
2023-05-15T10:27:59.088Z,73.43
2023-05-15T10:30:26.127Z,73.75
2023-05-15T10:32:53.187Z,73.74
2023-05-15T10:35:20.730Z,73.85
2023-05-15T10:37:47.802Z,73.75
2023-05-15T10:40:15.082Z,73.94
2023-05-15T10:42:42.114Z,73.93
2023-05-15T10:45:09.151Z,73.97
2023-05-15T10:47:36.534Z,74.30
2023-05-15T10:50:04.416Z,74.97
2023-05-15T10:52:31.762Z,75.11
2023-05-15T10:54:58.361Z,75.01
2023-05-15T10:57:24.739Z,74.64
2023-05-15T10:59:51.320Z,74.18
2023-05-15T11:02:29.263Z,74.39
2023-05-15T11:08:16.429Z,74.51
2023-05-15T11:10:42.826Z,76.90
2023-05-15T11:13:09.211Z,77.60
2023-05-15T11:15:42.579Z,77.24
2023-05-15T11:18:09.117Z,77.70
2023-05-15T11:20:39.704Z,78.48
2023-05-15T11:23:06.220Z,78.06
2023-05-15T11:25:34.198Z,77.93
2023-05-15T11:28:02.348Z,77.48
2023-05-15T11:30:36.086Z,77.14
2023-05-15T11:33:06.866Z,76.34
2023-05-15T11:35:36.478Z,74.66
2023-05-15T11:38:04.122Z,71.14
2023-05-15T11:40:31.778Z,70.46
2023-05-15T11:42:58.748Z,68.87
2023-05-15T11:45:25.117Z,71.28
2023-05-15T11:47:51.467Z,68.06
2023-05-15T11:50:21.474Z,70.92
2023-05-15T11:52:48.612Z,66.13
2023-05-15T11:55:15.610Z,64.46
2023-05-15T11:57:41.942Z,67.63
2023-05-15T12:00:08.610Z,68.07
2023-05-15T12:02:35.984Z,67.42
2023-05-15T12:05:02.553Z,68.42
2023-05-15T12:07:29.004Z,69.33
2023-05-15T12:09:55.426Z,70.04
2023-05-15T12:12:21.815Z,70.23
2023-05-15T12:14:48.162Z,71.09
2023-05-15T12:17:14.458Z,71.03
2023-05-15T12:19:41.753Z,71.13
2023-05-15T12:22:08.286Z,70.80
2023-05-15T12:24:36.976Z,70.15
2023-05-15T12:31:25.857Z,66.43
2023-05-15T12:40:21.667Z,68.18
2023-05-15T12:42:19.190Z,68.11
2023-05-15T12:44:45.721Z,68.78
2023-05-15T12:47:15.030Z,69.51
2023-05-15T12:49:41.737Z,70.40
2023-05-15T12:52:14.407Z,70.56
2023-05-15T12:54:40.669Z,71.71
2023-05-15T12:57:10.620Z,71.54
2023-05-15T12:59:38.119Z,71.64
2023-05-15T13:02:05.479Z,71.14
2023-05-15T13:04:33.034Z,71.45
2023-05-15T13:06:59.398Z,71.25
2023-05-15T13:09:25.851Z,70.89
2023-05-15T13:11:54.459Z,70.79
2023-05-15T13:14:21.088Z,69.85
2023-05-15T13:16:47.373Z,68.98
2023-05-15T13:19:13.910Z,69.65
2023-05-15T13:21:43.450Z,64.58
2023-05-15T13:24:09.931Z,64.69
2023-05-15T13:26:36.568Z,67.11
2023-05-15T13:29:02.832Z,68.04
2023-05-15T13:31:29.637Z,67.14
2023-05-15T13:33:56.216Z,67.83
2023-05-15T13:36:22.560Z,68.00
2023-05-15T13:38:48.890Z,68.18
2023-05-15T13:41:15.280Z,68.23
2023-05-15T13:43:41.525Z,68.60
2023-05-15T13:46:07.833Z,68.71
2023-05-15T13:48:34.199Z,68.65
2023-05-15T13:51:00.482Z,68.01
2023-05-15T13:53:26.777Z,67.32
2023-05-15T13:55:53.147Z,67.54
2023-05-15T13:58:19.447Z,67.01
2023-05-15T14:00:46.102Z,66.71
2023-05-15T14:03:15.256Z,66.95
2023-05-15T14:05:42.214Z,67.63
2023-05-15T14:08:08.550Z,67.91
2023-05-15T14:10:38.062Z,69.14
2023-05-15T14:23:50.023Z,71.26
2023-05-15T14:26:46.688Z,70.31
2023-05-15T14:29:58.963Z,69.04
2023-05-15T14:42:53.713Z,68.09
2023-05-15T14:45:53.866Z,66.05
2023-05-15T14:48:20.419Z,65.76
2023-05-15T14:50:46.815Z,65.64
2023-05-15T14:53:13.233Z,65.32
2023-05-15T14:55:39.657Z,66.14
2023-05-15T14:58:05.985Z,66.54
2023-05-15T15:00:32.286Z,66.39
2023-05-15T15:02:58.796Z,65.67
2023-05-15T15:05:25.172Z,65.11
2023-05-15T15:07:57.800Z,65.38
2023-05-15T15:10:24.316Z,63.33
2023-05-15T15:12:51.015Z,59.60
2023-05-15T15:15:18.021Z,60.73
2023-05-15T15:17:44.330Z,61.91
2023-05-15T15:20:10.822Z,61.75
2023-05-15T15:22:37.444Z,62.16
2023-05-15T15:25:03.944Z,58.66
2023-05-15T15:27:33.593Z,54.46
2023-05-15T15:29:59.942Z,47.26
2023-05-15T15:32:26.367Z,41.58
2023-05-15T15:34:52.708Z,44.44
2023-05-15T15:37:19.118Z,47.21
2023-05-15T15:39:45.379Z,44.80
2023-05-15T15:42:11.767Z,45.19
2023-05-15T15:44:38.076Z,44.95
2023-05-15T15:47:04.374Z,46.20
2023-05-15T15:49:30.691Z,47.03
2023-05-15T15:51:57.204Z,50.02
2023-05-15T15:54:23.551Z,51.23
2023-05-15T15:56:50.886Z,51.76
2023-05-15T15:59:17.247Z,53.26
2023-05-15T16:01:43.749Z,55.21
2023-05-15T16:04:10.226Z,55.99
2023-05-15T16:06:36.781Z,56.67
2023-05-15T16:09:03.368Z,57.89
2023-05-15T16:11:29.714Z,58.69
2023-05-15T16:13:56.101Z,60.09
2023-05-15T16:16:22.703Z,60.91
2023-05-15T16:18:49.358Z,61.01
2023-05-15T16:21:15.631Z,61.38
2023-05-15T16:23:41.978Z,60.58
2023-05-15T16:26:08.874Z,60.00
2023-05-15T16:28:35.257Z,59.39
2023-05-15T16:31:02.033Z,59.54
2023-05-15T16:33:29.301Z,59.77
2023-05-15T16:35:55.843Z,60.14
2023-05-15T16:38:22.304Z,60.38
2023-05-15T16:40:49.699Z,61.44
2023-05-15T16:43:16.020Z,60.93
2023-05-15T16:45:42.731Z,60.77
2023-05-15T16:48:09.218Z,60.31
2023-05-15T16:50:35.913Z,60.68
2023-05-15T16:53:02.790Z,60.63
2023-05-15T16:55:29.898Z,61.02
2023-05-15T16:57:56.236Z,61.14
2023-05-15T17:00:22.668Z,61.14
2023-05-15T17:02:49.435Z,61.71
2023-05-15T17:05:15.779Z,61.71
2023-05-15T17:07:42.819Z,61.70
2023-05-15T17:10:10.055Z,61.07
2023-05-15T17:12:36.712Z,60.99
2023-05-15T17:15:03.454Z,60.97
2023-05-15T17:17:29.912Z,61.20
2023-05-15T17:19:56.363Z,60.82
2023-05-15T17:22:23.251Z,60.51
2023-05-15T17:24:51.914Z,60.80
2023-05-15T17:27:19.015Z,61.18
2023-05-15T17:29:45.923Z,61.51
2023-05-15T17:32:12.697Z,61.94
2023-05-15T17:34:39.215Z,62.38
2023-05-15T17:37:05.573Z,62.54
2023-05-15T17:39:31.847Z,63.01
2023-05-15T17:41:58.115Z,63.22
2023-05-15T17:44:24.469Z,63.00
2023-05-15T17:46:50.892Z,64.13
2023-05-15T17:49:17.176Z,64.68
2023-05-15T17:51:43.593Z,64.70
2023-05-15T17:54:09.930Z,64.98
2023-05-15T17:56:36.236Z,64.95
2023-05-15T17:59:02.679Z,64.42
2023-05-15T18:01:29.334Z,64.66
2023-05-15T18:03:55.683Z,64.47
2023-05-15T18:06:22.175Z,65.32
2023-05-15T18:08:48.558Z,66.98
2023-05-15T18:11:22.545Z,67.35
2023-05-15T18:13:49.505Z,67.57
2023-05-15T18:16:15.895Z,67.15
2023-05-15T18:18:42.431Z,66.15
2023-05-15T18:21:08.924Z,67.90
2023-05-15T18:23:35.312Z,69.36
2023-05-15T18:26:01.644Z,68.37
2023-05-15T18:28:29.554Z,69.74
2023-05-15T18:30:57.036Z,70.59
2023-05-15T18:33:23.361Z,68.95
2023-05-15T18:35:49.693Z,70.21
2023-05-15T18:38:15.980Z,70.27
2023-05-15T18:40:45.172Z,71.78
2023-05-15T18:43:11.541Z,71.66
2023-05-15T18:45:38.014Z,71.98
2023-05-15T18:48:04.713Z,72.33
2023-05-15T18:50:31.128Z,71.81
2023-05-15T18:52:57.441Z,70.10
2023-05-15T18:55:24.001Z,70.46
2023-05-15T18:57:50.375Z,71.90
2023-05-15T19:00:26.622Z,71.75
2023-05-15T19:03:03.277Z,70.95
2023-05-15T19:05:29.636Z,72.85
2023-05-15T19:07:55.953Z,73.27
2023-05-15T19:10:22.311Z,72.10
2023-05-15T19:12:49.075Z,71.82
2023-05-15T19:15:15.460Z,72.18
2023-05-15T19:17:41.784Z,72.06
2023-05-15T19:20:08.342Z,71.88
2023-05-15T19:22:34.796Z,71.81
2023-05-15T19:25:01.159Z,72.01
2023-05-15T19:27:27.534Z,72.38
2023-05-15T19:29:53.814Z,71.93
2023-05-15T19:32:20.298Z,72.46
2023-05-15T19:34:46.696Z,72.38
2023-05-15T19:37:13.053Z,72.56
2023-05-15T19:39:39.336Z,72.89
2023-05-15T19:42:05.824Z,73.41
2023-05-15T19:44:32.209Z,73.31
2023-05-15T19:46:58.709Z,73.65
2023-05-15T19:49:25.099Z,74.05
2023-05-15T19:51:51.456Z,73.11
2023-05-15T19:54:17.822Z,73.64
2023-05-15T19:56:44.133Z,73.98
2023-05-15T19:59:11.728Z,73.20
2023-05-15T20:01:38.199Z,73.82
2023-05-15T20:04:04.622Z,73.71
2023-05-15T20:06:31.015Z,73.58
2023-05-15T20:08:57.305Z,73.77
2023-05-15T20:11:23.683Z,73.42
2023-05-15T20:13:50.224Z,73.42
2023-05-15T20:16:18.879Z,73.87
2023-05-15T20:18:45.655Z,73.57
2023-05-15T20:21:11.991Z,73.70
2023-05-15T20:23:38.281Z,73.94
2023-05-15T20:26:04.595Z,74.47
2023-05-15T20:28:31.012Z,74.67
2023-05-15T20:30:57.341Z,74.41
2023-05-15T20:33:24.016Z,73.77
2023-05-15T20:35:50.309Z,72.80
2023-05-15T20:38:16.874Z,72.74
2023-05-15T20:40:43.225Z,74.30
2023-05-15T20:43:09.561Z,75.32
2023-05-15T20:45:36.029Z,74.80
2023-05-15T20:48:04.999Z,75.47
2023-05-15T20:50:31.443Z,76.15
2023-05-15T20:52:57.756Z,76.12
2023-05-15T20:55:25.712Z,76.44
2023-05-15T20:57:52.103Z,76.51
2023-05-15T21:00:18.588Z,76.77
2023-05-15T21:02:45.474Z,77.12
2023-05-15T21:05:12.170Z,75.83
2023-05-15T21:07:38.598Z,77.35
2023-05-15T21:10:05.574Z,78.82
2023-05-15T21:12:31.853Z,75.83
2023-05-15T21:14:58.255Z,75.07
2023-05-15T21:17:24.590Z,76.82
2023-05-15T21:19:50.925Z,78.12
2023-05-15T21:22:17.249Z,77.32
2023-05-15T21:24:43.760Z,75.98
2023-05-15T21:27:10.016Z,75.11
2023-05-15T21:29:36.348Z,76.23
2023-05-15T21:32:04.699Z,80.15
2023-05-15T21:34:31.012Z,80.01
2023-05-15T21:36:57.293Z,77.70
2023-05-15T21:39:23.537Z,77.95
2023-05-15T21:41:49.978Z,78.10
2023-05-15T21:44:16.425Z,79.83
2023-05-15T21:46:42.713Z,77.24
2023-05-15T21:49:09.278Z,78.98
2023-05-15T21:51:35.593Z,80.72
2023-05-15T21:54:01.870Z,78.09
2023-05-15T21:56:28.375Z,78.10
2023-05-15T21:58:56.125Z,76.48
2023-05-15T22:01:23.523Z,76.79
2023-05-15T22:03:49.936Z,82.17
2023-05-15T22:06:16.304Z,81.18
2023-05-15T22:08:42.543Z,81.31
2023-05-15T22:11:08.807Z,81.68
2023-05-15T22:13:35.162Z,81.72
2023-05-15T22:16:01.802Z,83.72
2023-05-15T22:18:28.133Z,82.18
2023-05-15T22:20:54.496Z,82.99
2023-05-15T22:23:20.755Z,84.77
2023-05-15T22:25:46.976Z,85.52
2023-05-15T22:28:13.271Z,85.50
2023-05-15T22:30:39.548Z,85.93
2023-05-15T22:33:05.830Z,84.24
2023-05-15T22:35:32.153Z,82.91
2023-05-15T22:37:58.388Z,84.22
2023-05-15T22:40:24.768Z,84.83
2023-05-15T22:42:51.327Z,85.55
2023-05-15T22:45:18.689Z,84.60
2023-05-15T22:47:45.640Z,84.65
2023-05-15T22:50:12.052Z,84.78
2023-05-15T22:52:38.351Z,86.22
2023-05-15T22:55:04.940Z,86.50
2023-05-15T22:57:31.390Z,83.74
2023-05-15T22:59:57.699Z,84.21
2023-05-15T23:02:24.073Z,85.82
2023-05-15T23:04:50.410Z,85.67
2023-05-15T23:07:16.624Z,84.23
2023-05-15T23:09:43.251Z,82.46
2023-05-15T23:12:09.535Z,82.33
2023-05-15T23:14:35.843Z,86.15
2023-05-15T23:17:02.835Z,84.73
2023-05-15T23:19:29.091Z,84.42
2023-05-15T23:21:55.358Z,85.85
2023-05-15T23:24:21.665Z,86.12
2023-05-15T23:26:47.909Z,85.65
2023-05-15T23:29:14.161Z,85.43
2023-05-15T23:31:40.517Z,86.66
2023-05-15T23:34:06.860Z,86.96
2023-05-15T23:36:33.121Z,87.17
2023-05-15T23:38:59.344Z,86.77
2023-05-15T23:41:25.557Z,86.96
2023-05-15T23:43:51.808Z,86.69
2023-05-15T23:46:18.216Z,86.71
2023-05-15T23:48:44.601Z,86.24
2023-05-15T23:51:10.823Z,86.54
2023-05-15T23:53:37.222Z,86.49
2023-05-15T23:56:03.900Z,85.77
2023-05-15T23:58:30.169Z,86.64
